Terminal Aerodrome Forecast
Issued by NWS

Home | Current Version | Previous Version | Text Only | Print | Product List | Glossary On
Versions: 1 2 3 4 5 6 7 8 9 10 11 12 13
000
FTUS43 KGRB 280552
TAFCWA
TAF
KCWA 280552Z 2806/2906 VRB03KT P6SM SKC
      TEMPO 2810/2812 5SM BR
     FM281200 17009KT P6SM FEW100 BKN200
     FM281600 17012KT P6SM SCT050 BKN100
     FM281900 17010KT P6SM VCSH BKN045 OVC100
     FM282300 19006KT 5SM -SHRA OVC035
      TEMPO 2900/2904 2SM TSRA BKN020CB=

USA.gov is the U.S. government's official web portal to all federal, state and local government web resources and services.